sensor_id;sensor_type;location;lat;lon;timestamp;temperature;humidity
16038;DHT22;8123;50.906;6.172;2023-02-15T00:01:44;2.60;99.90
16038;DHT22;8123;50.906;6.172;2023-02-15T00:04:13;2.60;99.90
16038;DHT22;8123;50.906;6.172;2023-02-15T00:06:38;2.80;99.90
16038;DHT22;8123;50.906;6.172;2023-02-15T00:09:04;2.60;99.90
16038;DHT22;8123;50.906;6.172;2023-02-15T00:11:30;2.70;99.90
16038;DHT22;8123;50.906;6.172;2023-02-15T00:14:18;2.70;99.90
16038;DHT22;8123;50.906;6.172;2023-02-15T00:16:45;2.80;99.90
16038;DHT22;8123;50.906;6.172;2023-02-15T00:19:12;2.80;99.90
16038;DHT22;8123;50.906;6.172;2023-02-15T00:21:39;2.80;99.90
16038;DHT22;8123;50.906;6.172;2023-02-15T00:24:06;2.80;99.90
16038;DHT22;8123;50.906;6.172;2023-02-15T00:26:32;3.30;99.90
16038;DHT22;8123;50.906;6.172;2023-02-15T00:28:58;2.90;99.90
16038;DHT22;8123;50.906;6.172;2023-02-15T00:31:24;2.70;99.90
16038;DHT22;8123;50.906;6.172;2023-02-15T00:33:50;2.80;99.90
16038;DHT22;8123;50.906;6.172;2023-02-15T00:36:16;2.80;99.90
16038;DHT22;8123;50.906;6.172;2023-02-15T00:38:41;2.80;99.90
16038;DHT22;8123;50.906;6.172;2023-02-15T00:41:08;2.70;99.90
16038;DHT22;8123;50.906;6.172;2023-02-15T00:43:35;2.70;99.90
16038;DHT22;8123;50.906;6.172;2023-02-15T00:46:02;2.60;99.90
16038;DHT22;8123;50.906;6.172;2023-02-15T00:48:28;2.60;99.90
16038;DHT22;8123;50.906;6.172;2023-02-15T00:50:55;2.70;99.90
16038;DHT22;8123;50.906;6.172;2023-02-15T00:53:22;2.70;99.90
16038;DHT22;8123;50.906;6.172;2023-02-15T00:55:48;2.70;99.90
16038;DHT22;8123;50.906;6.172;2023-02-15T00:58:14;2.70;99.90
16038;DHT22;8123;50.906;6.172;2023-02-15T01:00:42;2.70;99.90
16038;DHT22;8123;50.906;6.172;2023-02-15T01:03:09;2.60;99.90
16038;DHT22;8123;50.906;6.172;2023-02-15T01:05:34;2.60;99.90
16038;DHT22;8123;50.906;6.172;2023-02-15T01:08:00;2.50;99.90
16038;DHT22;8123;50.906;6.172;2023-02-15T01:10:26;2.50;99.90
16038;DHT22;8123;50.906;6.172;2023-02-15T01:12:54;2.40;99.90
16038;DHT22;8123;50.906;6.172;2023-02-15T01:15:20;2.40;99.90
16038;DHT22;8123;50.906;6.172;2023-02-15T01:17:45;2.40;99.90
16038;DHT22;8123;50.906;6.172;2023-02-15T01:20:17;2.30;99.90
16038;DHT22;8123;50.906;6.172;2023-02-15T01:22:43;2.30;99.90
16038;DHT22;8123;50.906;6.172;2023-02-15T01:25:09;2.20;99.90
16038;DHT22;8123;50.906;6.172;2023-02-15T01:27:34;2.20;99.90
16038;DHT22;8123;50.906;6.172;2023-02-15T01:30:00;2.20;99.90
16038;DHT22;8123;50.906;6.172;2023-02-15T01:32:26;2.40;99.90
16038;DHT22;8123;50.906;6.172;2023-02-15T01:34:52;2.10;99.90
16038;DHT22;8123;50.906;6.172;2023-02-15T01:37:18;2.10;99.90
16038;DHT22;8123;50.906;6.172;2023-02-15T01:39:43;2.00;99.90
16038;DHT22;8123;50.906;6.172;2023-02-15T01:42:11;2.00;99.90
16038;DHT22;8123;50.906;6.172;2023-02-15T01:44:53;2.00;99.90
16038;DHT22;8123;50.906;6.172;2023-02-15T01:47:38;2.00;99.90
16038;DHT22;8123;50.906;6.172;2023-02-15T01:55:31;2.00;99.90
16038;DHT22;8123;50.906;6.172;2023-02-15T01:57:58;2.00;99.90
16038;DHT22;8123;50.906;6.172;2023-02-15T02:00:24;2.10;99.90
16038;DHT22;8123;50.906;6.172;2023-02-15T02:02:53;2.10;99.90
16038;DHT22;8123;50.906;6.172;2023-02-15T02:05:20;2.00;99.90
16038;DHT22;8123;50.906;6.172;2023-02-15T02:07:46;2.00;99.90
16038;DHT22;8123;50.906;6.172;2023-02-15T02:10:17;2.00;99.90
16038;DHT22;8123;50.906;6.172;2023-02-15T02:12:45;2.00;99.90
16038;DHT22;8123;50.906;6.172;2023-02-15T02:15:12;1.90;99.90
16038;DHT22;8123;50.906;6.172;2023-02-15T02:26:36;1.90;99.90
16038;DHT22;8123;50.906;6.172;2023-02-15T02:35:08;1.80;99.90
16038;DHT22;8123;50.906;6.172;2023-02-15T02:40:52;1.80;99.90
16038;DHT22;8123;50.906;6.172;2023-02-15T02:43:44;1.80;99.90
16038;DHT22;8123;50.906;6.172;2023-02-15T02:46:17;1.80;99.90
16038;DHT22;8123;50.906;6.172;2023-02-15T02:48:46;1.70;99.90
16038;DHT22;8123;50.906;6.172;2023-02-15T02:51:13;1.80;99.90
16038;DHT22;8123;50.906;6.172;2023-02-15T02:53:39;1.80;99.90
16038;DHT22;8123;50.906;6.172;2023-02-15T02:56:29;1.90;99.90
16038;DHT22;8123;50.906;6.172;2023-02-15T02:59:12;1.80;99.90
16038;DHT22;8123;50.906;6.172;2023-02-15T03:01:44;1.80;99.90
16038;DHT22;8123;50.906;6.172;2023-02-15T03:04:18;1.70;99.90
16038;DHT22;8123;50.906;6.172;2023-02-15T03:07:07;1.70;99.90
16038;DHT22;8123;50.906;6.172;2023-02-15T03:09:39;1.70;99.90
16038;DHT22;8123;50.906;6.172;2023-02-15T03:12:16;1.60;99.90
16038;DHT22;8123;50.906;6.172;2023-02-15T03:14:45;1.60;99.90
16038;DHT22;8123;50.906;6.172;2023-02-15T03:17:12;1.60;99.90
16038;DHT22;8123;50.906;6.172;2023-02-15T03:19:40;1.60;99.90
16038;DHT22;8123;50.906;6.172;2023-02-15T03:22:15;1.50;99.90
16038;DHT22;8123;50.906;6.172;2023-02-15T03:24:59;1.50;99.90
16038;DHT22;8123;50.906;6.172;2023-02-15T03:27:35;1.40;99.90
16038;DHT22;8123;50.906;6.172;2023-02-15T03:30:04;1.40;99.90
16038;DHT22;8123;50.906;6.172;2023-02-15T03:32:32;1.30;99.90
16038;DHT22;8123;50.906;6.172;2023-02-15T03:34:58;1.40;99.90
16038;DHT22;8123;50.906;6.172;2023-02-15T03:37:37;1.40;99.90
16038;DHT22;8123;50.906;6.172;2023-02-15T03:40:29;1.40;99.90
16038;DHT22;8123;50.906;6.172;2023-02-15T03:46:55;1.30;99.90
16038;DHT22;8123;50.906;6.172;2023-02-15T03:49:03;1.30;99.90
16038;DHT22;8123;50.906;6.172;2023-02-15T03:51:34;1.30;99.90
16038;DHT22;8123;50.906;6.172;2023-02-15T03:54:29;1.20;99.90
16038;DHT22;8123;50.906;6.172;2023-02-15T03:57:16;1.20;99.90
16038;DHT22;8123;50.906;6.172;2023-02-15T04:05:40;1.20;99.90
16038;DHT22;8123;50.906;6.172;2023-02-15T04:08:06;1.20;99.90
16038;DHT22;8123;50.906;6.172;2023-02-15T04:10:32;1.20;99.90
16038;DHT22;8123;50.906;6.172;2023-02-15T04:13:16;1.20;99.90
16038;DHT22;8123;50.906;6.172;2023-02-15T04:15:42;1.20;99.90
16038;DHT22;8123;50.906;6.172;2023-02-15T04:18:26;1.20;99.90
16038;DHT22;8123;50.906;6.172;2023-02-15T04:21:10;1.10;99.90
16038;DHT22;8123;50.906;6.172;2023-02-15T04:23:54;1.20;99.90
16038;DHT22;8123;50.906;6.172;2023-02-15T04:26:38;1.10;99.90
16038;DHT22;8123;50.906;6.172;2023-02-15T04:29:04;1.20;99.90
16038;DHT22;8123;50.906;6.172;2023-02-15T04:31:30;1.10;99.90
16038;DHT22;8123;50.906;6.172;2023-02-15T04:33:55;1.10;99.90
16038;DHT22;8123;50.906;6.172;2023-02-15T04:36:21;1.10;99.90
16038;DHT22;8123;50.906;6.172;2023-02-15T04:38:46;1.10;99.90
16038;DHT22;8123;50.906;6.172;2023-02-15T04:41:12;1.00;99.90
16038;DHT22;8123;50.906;6.172;2023-02-15T04:43:38;1.00;99.90
16038;DHT22;8123;50.906;6.172;2023-02-15T04:46:04;1.40;99.90
16038;DHT22;8123;50.906;6.172;2023-02-15T04:48:30;1.00;99.90
16038;DHT22;8123;50.906;6.172;2023-02-15T04:50:55;0.90;99.90
16038;DHT22;8123;50.906;6.172;2023-02-15T04:53:21;0.90;99.90
16038;DHT22;8123;50.906;6.172;2023-02-15T04:55:47;1.70;99.90
16038;DHT22;8123;50.906;6.172;2023-02-15T04:58:12;0.90;99.90
16038;DHT22;8123;50.906;6.172;2023-02-15T05:00:38;0.90;99.90
16038;DHT22;8123;50.906;6.172;2023-02-15T05:03:03;0.90;99.90
16038;DHT22;8123;50.906;6.172;2023-02-15T05:05:29;0.90;99.90
16038;DHT22;8123;50.906;6.172;2023-02-15T05:07:54;0.90;99.90
16038;DHT22;8123;50.906;6.172;2023-02-15T05:10:20;0.90;99.90
16038;DHT22;8123;50.906;6.172;2023-02-15T05:12:46;0.90;99.90
16038;DHT22;8123;50.906;6.172;2023-02-15T05:15:11;0.90;99.90
16038;DHT22;8123;50.906;6.172;2023-02-15T05:17:37;0.80;99.90
16038;DHT22;8123;50.906;6.172;2023-02-15T05:20:03;0.80;99.90
16038;DHT22;8123;50.906;6.172;2023-02-15T05:22:29;0.80;99.90
16038;DHT22;8123;50.906;6.172;2023-02-15T05:24:54;0.80;99.90
16038;DHT22;8123;50.906;6.172;2023-02-15T05:27:55;0.80;99.90
16038;DHT22;8123;50.906;6.172;2023-02-15T05:30:39;0.70;99.90
16038;DHT22;8123;50.906;6.172;2023-02-15T05:33:06;0.70;99.90
16038;DHT22;8123;50.906;6.172;2023-02-15T05:35:33;0.70;99.90
16038;DHT22;8123;50.906;6.172;2023-02-15T05:37:59;0.80;99.90
16038;DHT22;8123;50.906;6.172;2023-02-15T05:40:25;0.80;99.90
16038;DHT22;8123;50.906;6.172;2023-02-15T05:42:50;0.70;99.90
16038;DHT22;8123;50.906;6.172;2023-02-15T05:45:16;0.70;99.90
16038;DHT22;8123;50.906;6.172;2023-02-15T05:47:42;0.70;99.90
16038;DHT22;8123;50.906;6.172;2023-02-15T05:50:08;0.80;99.90
16038;DHT22;8123;50.906;6.172;2023-02-15T05:52:34;0.80;99.90
16038;DHT22;8123;50.906;6.172;2023-02-15T05:55:00;0.70;99.90
16038;DHT22;8123;50.906;6.172;2023-02-15T05:57:27;1.00;99.90
16038;DHT22;8123;50.906;6.172;2023-02-15T05:59:53;0.80;99.90
16038;DHT22;8123;50.906;6.172;2023-02-15T06:02:18;0.80;99.90
16038;DHT22;8123;50.906;6.172;2023-02-15T06:04:44;0.80;99.90
16038;DHT22;8123;50.906;6.172;2023-02-15T06:07:09;0.80;99.90
16038;DHT22;8123;50.906;6.172;2023-02-15T06:09:35;0.80;99.90
16038;DHT22;8123;50.906;6.172;2023-02-15T06:12:01;0.70;99.90
16038;DHT22;8123;50.906;6.172;2023-02-15T06:14:26;0.70;99.90
16038;DHT22;8123;50.906;6.172;2023-02-15T06:16:52;0.60;99.90
16038;DHT22;8123;50.906;6.172;2023-02-15T06:19:17;1.00;99.90
16038;DHT22;8123;50.906;6.172;2023-02-15T06:21:44;0.70;99.90
16038;DHT22;8123;50.906;6.172;2023-02-15T06:24:10;0.60;99.90
16038;DHT22;8123;50.906;6.172;2023-02-15T06:26:35;0.80;99.90
16038;DHT22;8123;50.906;6.172;2023-02-15T06:29:01;0.70;99.90
16038;DHT22;8123;50.906;6.172;2023-02-15T06:31:27;0.70;99.90
16038;DHT22;8123;50.906;6.172;2023-02-15T06:33:52;0.80;99.90
16038;DHT22;8123;50.906;6.172;2023-02-15T06:36:25;0.80;99.90
16038;DHT22;8123;50.906;6.172;2023-02-15T06:38:51;0.80;99.90
16038;DHT22;8123;50.906;6.172;2023-02-15T06:41:17;0.80;99.90
16038;DHT22;8123;50.906;6.172;2023-02-15T06:43:42;0.80;99.90
16038;DHT22;8123;50.906;6.172;2023-02-15T06:46:08;0.80;99.90
16038;DHT22;8123;50.906;6.172;2023-02-15T06:48:34;0.60;99.90
16038;DHT22;8123;50.906;6.172;2023-02-15T06:50:59;0.80;99.90
16038;DHT22;8123;50.906;6.172;2023-02-15T06:53:25;0.80;99.90
16038;DHT22;8123;50.906;6.172;2023-02-15T06:55:51;0.70;99.90
16038;DHT22;8123;50.906;6.172;2023-02-15T06:58:19;0.70;99.90
16038;DHT22;8123;50.906;6.172;2023-02-15T07:00:45;0.70;99.90
16038;DHT22;8123;50.906;6.172;2023-02-15T07:03:13;0.70;99.90
16038;DHT22;8123;50.906;6.172;2023-02-15T07:05:40;1.00;99.90
16038;DHT22;8123;50.906;6.172;2023-02-15T07:08:05;0.60;99.90
16038;DHT22;8123;50.906;6.172;2023-02-15T07:10:31;0.70;99.90
16038;DHT22;8123;50.906;6.172;2023-02-15T07:12:57;0.80;99.90
16038;DHT22;8123;50.906;6.172;2023-02-15T07:15:23;0.80;99.90
16038;DHT22;8123;50.906;6.172;2023-02-15T07:17:49;0.90;99.90
16038;DHT22;8123;50.906;6.172;2023-02-15T07:20:24;0.80;99.90
16038;DHT22;8123;50.906;6.172;2023-02-15T07:22:51;0.90;99.90
16038;DHT22;8123;50.906;6.172;2023-02-15T07:25:17;1.10;99.90
16038;DHT22;8123;50.906;6.172;2023-02-15T07:27:42;1.00;99.90
16038;DHT22;8123;50.906;6.172;2023-02-15T07:30:11;1.00;99.90
16038;DHT22;8123;50.906;6.172;2023-02-15T07:32:38;1.00;99.90
16038;DHT22;8123;50.906;6.172;2023-02-15T07:35:23;1.10;99.90
16038;DHT22;8123;50.906;6.172;2023-02-15T07:37:49;1.10;99.90
16038;DHT22;8123;50.906;6.172;2023-02-15T07:40:15;1.10;99.90
16038;DHT22;8123;50.906;6.172;2023-02-15T07:42:40;1.10;99.90
16038;DHT22;8123;50.906;6.172;2023-02-15T07:45:06;1.20;99.90
16038;DHT22;8123;50.906;6.172;2023-02-15T07:47:32;1.30;99.90
16038;DHT22;8123;50.906;6.172;2023-02-15T07:49:58;1.20;99.90
16038;DHT22;8123;50.906;6.172;2023-02-15T07:52:23;1.60;99.90
16038;DHT22;8123;50.906;6.172;2023-02-15T07:54:50;1.40;99.90
16038;DHT22;8123;50.906;6.172;2023-02-15T07:57:16;1.40;99.90
16038;DHT22;8123;50.906;6.172;2023-02-15T07:59:41;1.50;99.90
16038;DHT22;8123;50.906;6.172;2023-02-15T08:02:10;1.50;99.90
16038;DHT22;8123;50.906;6.172;2023-02-15T08:04:36;2.00;99.90
16038;DHT22;8123;50.906;6.172;2023-02-15T08:07:02;1.60;99.90
16038;DHT22;8123;50.906;6.172;2023-02-15T08:09:28;1.60;99.90
16038;DHT22;8123;50.906;6.172;2023-02-15T08:11:53;1.70;99.90
16038;DHT22;8123;50.906;6.172;2023-02-15T08:14:20;2.50;99.90
16038;DHT22;8123;50.906;6.172;2023-02-15T08:21:51;1.90;99.90
16038;DHT22;8123;50.906;6.172;2023-02-15T08:24:19;2.40;99.90
16038;DHT22;8123;50.906;6.172;2023-02-15T08:26:45;2.00;99.90
16038;DHT22;8123;50.906;6.172;2023-02-15T08:29:13;2.80;99.90
16038;DHT22;8123;50.906;6.172;2023-02-15T08:31:39;2.90;99.90
16038;DHT22;8123;50.906;6.172;2023-02-15T08:34:06;2.30;99.90
16038;DHT22;8123;50.906;6.172;2023-02-15T08:36:32;2.70;99.90
16038;DHT22;8123;50.906;6.172;2023-02-15T08:39:00;2.70;99.90
16038;DHT22;8123;50.906;6.172;2023-02-15T08:41:28;2.50;99.90
16038;DHT22;8123;50.906;6.172;2023-02-15T08:43:59;2.50;99.90
16038;DHT22;8123;50.906;6.172;2023-02-15T08:46:28;2.90;99.90
16038;DHT22;8123;50.906;6.172;2023-02-15T08:48:54;2.90;99.90
16038;DHT22;8123;50.906;6.172;2023-02-15T08:51:22;3.00;99.90
16038;DHT22;8123;50.906;6.172;2023-02-15T08:53:53;3.10;99.90
16038;DHT22;8123;50.906;6.172;2023-02-15T08:56:24;3.40;99.90
16038;DHT22;8123;50.906;6.172;2023-02-15T08:58:52;2.80;99.90
16038;DHT22;8123;50.906;6.172;2023-02-15T09:01:20;3.10;99.90
16038;DHT22;8123;50.906;6.172;2023-02-15T09:03:47;3.50;99.90
16038;DHT22;8123;50.906;6.172;2023-02-15T09:06:14;3.60;99.90
16038;DHT22;8123;50.906;6.172;2023-02-15T09:08:40;3.10;99.90
16038;DHT22;8123;50.906;6.172;2023-02-15T09:11:11;3.50;99.90
16038;DHT22;8123;50.906;6.172;2023-02-15T09:13:38;3.20;99.90
16038;DHT22;8123;50.906;6.172;2023-02-15T09:16:07;3.70;99.90
16038;DHT22;8123;50.906;6.172;2023-02-15T09:18:35;3.60;99.90
16038;DHT22;8123;50.906;6.172;2023-02-15T09:21:13;4.20;99.90
16038;DHT22;8123;50.906;6.172;2023-02-15T09:23:40;3.50;99.90
16038;DHT22;8123;50.906;6.172;2023-02-15T09:26:10;3.90;99.90
16038;DHT22;8123;50.906;6.172;2023-02-15T09:28:36;3.80;99.90
16038;DHT22;8123;50.906;6.172;2023-02-15T09:31:17;3.90;99.90
16038;DHT22;8123;50.906;6.172;2023-02-15T09:33:44;4.10;99.90
16038;DHT22;8123;50.906;6.172;2023-02-15T09:36:35;4.20;99.90
16038;DHT22;8123;50.906;6.172;2023-02-15T09:39:09;4.30;99.90
16038;DHT22;8123;50.906;6.172;2023-02-15T09:41:54;4.00;99.90
16038;DHT22;8123;50.906;6.172;2023-02-15T09:50:57;4.40;99.90
16038;DHT22;8123;50.906;6.172;2023-02-15T09:56:23;4.60;99.90
16038;DHT22;8123;50.906;6.172;2023-02-15T10:04:37;4.80;99.90
16038;DHT22;8123;50.906;6.172;2023-02-15T10:18:53;5.20;99.90
16038;DHT22;8123;50.906;6.172;2023-02-15T10:26:50;5.40;99.90
16038;DHT22;8123;50.906;6.172;2023-02-15T10:29:36;5.50;99.90
16038;DHT22;8123;50.906;6.172;2023-02-15T10:32:24;5.60;99.90
16038;DHT22;8123;50.906;6.172;2023-02-15T10:35:01;5.70;99.90
16038;DHT22;8123;50.906;6.172;2023-02-15T10:37:50;5.70;99.90
16038;DHT22;8123;50.906;6.172;2023-02-15T10:43:14;5.90;99.90
16038;DHT22;8123;50.906;6.172;2023-02-15T10:51:08;6.20;99.90
16038;DHT22;8123;50.906;6.172;2023-02-15T10:56:36;6.30;99.90
16038;DHT22;8123;50.906;6.172;2023-02-15T11:07:18;6.60;99.90
16038;DHT22;8123;50.906;6.172;2023-02-15T11:10:14;6.80;99.90
16038;DHT22;8123;50.906;6.172;2023-02-15T11:12:44;6.70;99.90
16038;DHT22;8123;50.906;6.172;2023-02-15T11:15:32;7.20;99.90
16038;DHT22;8123;50.906;6.172;2023-02-15T11:18:28;6.90;99.90
16038;DHT22;8123;50.906;6.172;2023-02-15T11:23:27;7.50;99.90
16038;DHT22;8123;50.906;6.172;2023-02-15T11:25:59;7.50;99.90
16038;DHT22;8123;50.906;6.172;2023-02-15T11:28:36;7.40;99.90
16038;DHT22;8123;50.906;6.172;2023-02-15T11:31:34;7.40;99.90
16038;DHT22;8123;50.906;6.172;2023-02-15T11:34:05;7.50;99.90
16038;DHT22;8123;50.906;6.172;2023-02-15T11:36:39;7.60;99.90
16038;DHT22;8123;50.906;6.172;2023-02-15T11:39:11;7.70;99.90
16038;DHT22;8123;50.906;6.172;2023-02-15T11:41:41;7.80;99.90
16038;DHT22;8123;50.906;6.172;2023-02-15T11:44:15;7.80;99.90
16038;DHT22;8123;50.906;6.172;2023-02-15T11:46:43;8.20;99.90
16038;DHT22;8123;50.906;6.172;2023-02-15T11:49:32;8.00;99.90
16038;DHT22;8123;50.906;6.172;2023-02-15T11:52:03;8.00;99.90
16038;DHT22;8123;50.906;6.172;2023-02-15T11:54:32;8.10;99.90
16038;DHT22;8123;50.906;6.172;2023-02-15T11:57:19;8.10;99.90
16038;DHT22;8123;50.906;6.172;2023-02-15T11:59:49;8.20;99.90
16038;DHT22;8123;50.906;6.172;2023-02-15T12:02:19;8.20;99.90
16038;DHT22;8123;50.906;6.172;2023-02-15T12:04:54;8.20;99.90
16038;DHT22;8123;50.906;6.172;2023-02-15T12:07:37;8.30;99.90
16038;DHT22;8123;50.906;6.172;2023-02-15T12:12:43;8.40;99.90
16038;DHT22;8123;50.906;6.172;2023-02-15T12:15:10;8.40;99.90
16038;DHT22;8123;50.906;6.172;2023-02-15T12:17:53;8.50;99.90
16038;DHT22;8123;50.906;6.172;2023-02-15T12:20:30;8.60;99.90
16038;DHT22;8123;50.906;6.172;2023-02-15T12:23:03;8.70;99.90
16038;DHT22;8123;50.906;6.172;2023-02-15T12:28:30;8.80;99.90
16038;DHT22;8123;50.906;6.172;2023-02-15T12:30:57;8.80;99.90
16038;DHT22;8123;50.906;6.172;2023-02-15T12:33:36;8.90;99.90
16038;DHT22;8123;50.906;6.172;2023-02-15T12:36:19;8.90;99.90
16038;DHT22;8123;50.906;6.172;2023-02-15T12:39:22;8.90;99.90
16038;DHT22;8123;50.906;6.172;2023-02-15T12:44:25;9.10;99.90
16038;DHT22;8123;50.906;6.172;2023-02-15T12:47:03;9.20;99.90
16038;DHT22;8123;50.906;6.172;2023-02-15T12:49:32;9.30;99.90
16038;DHT22;8123;50.906;6.172;2023-02-15T12:52:00;9.30;99.90
16038;DHT22;8123;50.906;6.172;2023-02-15T12:54:41;9.30;99.90
16038;DHT22;8123;50.906;6.172;2023-02-15T12:59:57;9.40;99.90
16038;DHT22;8123;50.906;6.172;2023-02-15T13:02:44;9.50;99.90
16038;DHT22;8123;50.906;6.172;2023-02-15T13:05:35;9.70;99.90
16038;DHT22;8123;50.906;6.172;2023-02-15T13:08:26;9.80;99.90
16038;DHT22;8123;50.906;6.172;2023-02-15T13:13:36;9.70;99.90
16038;DHT22;8123;50.906;6.172;2023-02-15T13:16:11;9.80;99.90
16038;DHT22;8123;50.906;6.172;2023-02-15T13:18:45;10.00;99.90
16038;DHT22;8123;50.906;6.172;2023-02-15T13:21:35;10.10;99.90
16038;DHT22;8123;50.906;6.172;2023-02-15T13:24:06;10.00;99.90
16038;DHT22;8123;50.906;6.172;2023-02-15T13:26:34;10.00;99.90
16038;DHT22;8123;50.906;6.172;2023-02-15T13:29:08;10.00;99.90
16038;DHT22;8123;50.906;6.172;2023-02-15T13:31:38;10.00;99.90
16038;DHT22;8123;50.906;6.172;2023-02-15T13:34:12;10.00;99.90
16038;DHT22;8123;50.906;6.172;2023-02-15T13:36:47;10.00;99.90
16038;DHT22;8123;50.906;6.172;2023-02-15T13:39:31;10.00;99.90
16038;DHT22;8123;50.906;6.172;2023-02-15T13:47:22;10.10;99.90
16038;DHT22;8123;50.906;6.172;2023-02-15T13:50:20;10.10;99.90
16038;DHT22;8123;50.906;6.172;2023-02-15T13:53:23;10.10;99.90
16038;DHT22;8123;50.906;6.172;2023-02-15T13:58:56;10.10;99.90
16038;DHT22;8123;50.906;6.172;2023-02-15T14:01:55;10.10;99.90
16038;DHT22;8123;50.906;6.172;2023-02-15T14:16:04;10.20;99.90
16038;DHT22;8123;50.906;6.172;2023-02-15T14:21:15;10.40;99.90
16038;DHT22;8123;50.906;6.172;2023-02-15T14:26:52;10.60;99.90
16038;DHT22;8123;50.906;6.172;2023-02-15T14:30:10;10.70;99.90
16038;DHT22;8123;50.906;6.172;2023-02-15T14:32:13;10.80;99.90
16038;DHT22;8123;50.906;6.172;2023-02-15T14:35:00;10.80;99.90
16038;DHT22;8123;50.906;6.172;2023-02-15T14:37:47;10.70;99.90
16038;DHT22;8123;50.906;6.172;2023-02-15T14:40:32;10.70;99.90
16038;DHT22;8123;50.906;6.172;2023-02-15T14:46:21;10.70;99.90
16038;DHT22;8123;50.906;6.172;2023-02-15T14:48:57;10.70;99.90
16038;DHT22;8123;50.906;6.172;2023-02-15T15:07:47;10.60;99.90
16038;DHT22;8123;50.906;6.172;2023-02-15T15:13:33;10.60;99.90
16038;DHT22;8123;50.906;6.172;2023-02-15T15:15:53;10.70;99.90
16038;DHT22;8123;50.906;6.172;2023-02-15T15:18:43;10.70;99.90
16038;DHT22;8123;50.906;6.172;2023-02-15T15:21:09;10.70;99.90
16038;DHT22;8123;50.906;6.172;2023-02-15T15:23:41;10.70;99.90
16038;DHT22;8123;50.906;6.172;2023-02-15T15:26:29;10.60;99.90
16038;DHT22;8123;50.906;6.172;2023-02-15T15:28:58;10.20;99.90
16038;DHT22;8123;50.906;6.172;2023-02-15T15:31:46;10.60;99.90
16038;DHT22;8123;50.906;6.172;2023-02-15T15:50:19;10.40;99.90
16038;DHT22;8123;50.906;6.172;2023-02-15T15:52:54;10.30;99.90
16038;DHT22;8123;50.906;6.172;2023-02-15T15:55:23;10.30;99.90
16038;DHT22;8123;50.906;6.172;2023-02-15T15:57:52;10.30;99.90
16038;DHT22;8123;50.906;6.172;2023-02-15T16:02:51;10.20;99.90
16038;DHT22;8123;50.906;6.172;2023-02-15T16:05:17;10.10;99.90
16038;DHT22;8123;50.906;6.172;2023-02-15T16:07:43;10.10;99.90
16038;DHT22;8123;50.906;6.172;2023-02-15T16:10:24;9.90;99.90
16038;DHT22;8123;50.906;6.172;2023-02-15T16:12:51;9.90;99.90
16038;DHT22;8123;50.906;6.172;2023-02-15T16:15:23;9.80;99.90
16038;DHT22;8123;50.906;6.172;2023-02-15T16:17:52;9.80;99.90
16038;DHT22;8123;50.906;6.172;2023-02-15T16:22:56;9.60;99.90
16038;DHT22;8123;50.906;6.172;2023-02-15T16:28:15;9.50;99.90
16038;DHT22;8123;50.906;6.172;2023-02-15T16:30:44;9.40;99.90
16038;DHT22;8123;50.906;6.172;2023-02-15T16:33:15;9.30;99.90
16038;DHT22;8123;50.906;6.172;2023-02-15T16:36:01;9.30;99.90
16038;DHT22;8123;50.906;6.172;2023-02-15T16:41:15;9.20;99.90
16038;DHT22;8123;50.906;6.172;2023-02-15T16:43:44;9.10;99.90
16038;DHT22;8123;50.906;6.172;2023-02-15T16:46:16;9.00;99.90
16038;DHT22;8123;50.906;6.172;2023-02-15T16:48:45;8.90;99.90
16038;DHT22;8123;50.906;6.172;2023-02-15T16:51:20;8.80;99.90
16038;DHT22;8123;50.906;6.172;2023-02-15T16:53:47;8.70;99.90
16038;DHT22;8123;50.906;6.172;2023-02-15T16:56:16;8.60;99.90
16038;DHT22;8123;50.906;6.172;2023-02-15T16:58:50;8.60;99.90
16038;DHT22;8123;50.906;6.172;2023-02-15T17:01:16;8.50;99.90
16038;DHT22;8123;50.906;6.172;2023-02-15T17:03:48;8.50;99.90
16038;DHT22;8123;50.906;6.172;2023-02-15T17:06:23;8.50;99.90
16038;DHT22;8123;50.906;6.172;2023-02-15T17:08:51;8.40;99.90
16038;DHT22;8123;50.906;6.172;2023-02-15T17:11:19;8.30;99.90
16038;DHT22;8123;50.906;6.172;2023-02-15T17:16:43;8.10;99.90
16038;DHT22;8123;50.906;6.172;2023-02-15T17:19:31;8.10;99.90
16038;DHT22;8123;50.906;6.172;2023-02-15T17:22:02;8.10;99.90
16038;DHT22;8123;50.906;6.172;2023-02-15T17:24:41;8.00;99.90
16038;DHT22;8123;50.906;6.172;2023-02-15T17:27:28;8.10;99.90
16038;DHT22;8123;50.906;6.172;2023-02-15T17:30:00;8.00;99.90
16038;DHT22;8123;50.906;6.172;2023-02-15T17:32:28;8.00;99.90
16038;DHT22;8123;50.906;6.172;2023-02-15T17:35:18;8.00;99.90
16038;DHT22;8123;50.906;6.172;2023-02-15T17:37:47;7.90;99.90
16038;DHT22;8123;50.906;6.172;2023-02-15T17:40:31;7.80;99.90
16038;DHT22;8123;50.906;6.172;2023-02-15T17:42:57;7.80;99.90
16038;DHT22;8123;50.906;6.172;2023-02-15T17:45:30;8.10;99.90
16038;DHT22;8123;50.906;6.172;2023-02-15T17:47:57;7.70;99.90
16038;DHT22;8123;50.906;6.172;2023-02-15T17:50:27;7.70;99.90
16038;DHT22;8123;50.906;6.172;2023-02-15T17:52:55;7.70;99.90
16038;DHT22;8123;50.906;6.172;2023-02-15T17:55:22;7.70;99.90
16038;DHT22;8123;50.906;6.172;2023-02-15T17:58:15;7.40;99.90
16038;DHT22;8123;50.906;6.172;2023-02-15T18:00:47;7.40;99.90
16038;DHT22;8123;50.906;6.172;2023-02-15T18:03:52;7.20;99.90
16038;DHT22;8123;50.906;6.172;2023-02-15T18:06:41;7.20;99.90
16038;DHT22;8123;50.906;6.172;2023-02-15T18:09:26;7.20;99.90
16038;DHT22;8123;50.906;6.172;2023-02-15T18:12:31;7.30;99.90
16038;DHT22;8123;50.906;6.172;2023-02-15T18:14:58;7.40;99.90
16038;DHT22;8123;50.906;6.172;2023-02-15T18:17:43;7.50;99.90
16038;DHT22;8123;50.906;6.172;2023-02-15T18:22:43;7.60;99.90
16038;DHT22;8123;50.906;6.172;2023-02-15T18:25:15;7.80;99.90
16038;DHT22;8123;50.906;6.172;2023-02-15T18:27:41;7.50;99.90
16038;DHT22;8123;50.906;6.172;2023-02-15T18:30:11;7.40;99.90
16038;DHT22;8123;50.906;6.172;2023-02-15T18:32:38;7.40;99.90
16038;DHT22;8123;50.906;6.172;2023-02-15T18:35:05;7.30;99.90
16038;DHT22;8123;50.906;6.172;2023-02-15T18:37:32;7.20;99.90
16038;DHT22;8123;50.906;6.172;2023-02-15T18:39:59;7.60;99.90
16038;DHT22;8123;50.906;6.172;2023-02-15T18:42:31;7.60;99.90
16038;DHT22;8123;50.906;6.172;2023-02-15T18:45:01;7.30;99.90
16038;DHT22;8123;50.906;6.172;2023-02-15T18:47:29;7.30;99.90
16038;DHT22;8123;50.906;6.172;2023-02-15T18:49:55;7.30;99.90
16038;DHT22;8123;50.906;6.172;2023-02-15T18:52:22;7.30;99.90
16038;DHT22;8123;50.906;6.172;2023-02-15T18:54:57;7.60;99.90
16038;DHT22;8123;50.906;6.172;2023-02-15T18:57:23;7.30;99.90
16038;DHT22;8123;50.906;6.172;2023-02-15T18:59:48;7.40;99.90
16038;DHT22;8123;50.906;6.172;2023-02-15T19:02:16;7.30;99.90
16038;DHT22;8123;50.906;6.172;2023-02-15T19:04:43;7.60;99.90
16038;DHT22;8123;50.906;6.172;2023-02-15T19:07:21;7.30;99.90
16038;DHT22;8123;50.906;6.172;2023-02-15T19:09:51;7.30;99.90
16038;DHT22;8123;50.906;6.172;2023-02-15T19:12:17;7.30;99.90
16038;DHT22;8123;50.906;6.172;2023-02-15T19:14:46;7.40;99.90
16038;DHT22;8123;50.906;6.172;2023-02-15T19:17:18;7.60;99.90
16038;DHT22;8123;50.906;6.172;2023-02-15T19:19:45;7.40;99.90
16038;DHT22;8123;50.906;6.172;2023-02-15T19:22:30;7.40;99.90
16038;DHT22;8123;50.906;6.172;2023-02-15T19:25:00;7.50;99.90
16038;DHT22;8123;50.906;6.172;2023-02-15T19:27:27;7.60;99.90
16038;DHT22;8123;50.906;6.172;2023-02-15T19:29:55;7.60;99.90
16038;DHT22;8123;50.906;6.172;2023-02-15T19:32:21;7.80;99.90
16038;DHT22;8123;50.906;6.172;2023-02-15T19:34:46;7.80;99.90